Time;durP1;ratioP1;P1;durP2;ratioP2;P2;SDS_P1;SDS_P2;PMS_P1;PMS_P2;Temp;Humidity;BMP_temperature;BMP_pressure;BME280_temperature;BME280_humidity;BME280_pressure;Samples;Min_cycle;Max_cycle;Signal;HPM_P1;HPM_P2
2023/10/26 00:00:54;;;;;;;;;;;;;;;16.90;82.14;98455.94;6222738;23;19907;-90
2023/10/26 00:03:20;;;;;;;;;;;;;;;16.89;82.75;98446.97;6248806;23;19946;-90
2023/10/26 00:05:45;;;;;;;;;;;;;;;16.87;83.22;98442.97;6197178;23;20093;-92
2023/10/26 00:08:10;;;;;;;;;;;;;;;16.85;83.65;98440.63;6221785;23;19950;-91
2023/10/26 00:10:40;;;;;;;;;;;;;;;16.78;84.13;98432.16;6221148;23;19911;-91
2023/10/26 00:13:06;;;;;;;;;;;;;;;16.83;83.35;98440.16;6223099;23;19926;-91
2023/10/26 00:15:32;;;;;;;;;;;;;;;16.84;83.87;98435.50;6196993;23;19911;-91
2023/10/26 00:17:58;;;;;;;;;;;;;;;16.83;83.55;98420.31;6222241;23;19907;-92
2023/10/26 00:20:24;;;;;;;;;;;;;;;16.85;83.67;98412.59;6196769;23;19918;-91
2023/10/26 00:22:50;;;;;;;;;;;;;;;16.88;83.15;98411.97;6248343;23;20331;-91
2023/10/26 00:25:15;;;;;;;;;;;;;;;16.95;82.43;98406.75;6197227;23;19956;-91
2023/10/26 00:27:42;;;;;;;;;;;;;;;17.00;82.54;98419.38;6196366;23;19935;-91
2023/10/26 00:30:09;;;;;;;;;;;;;;;16.93;83.00;98418.00;6222689;23;19915;-92
2023/10/26 00:32:35;;;;;;;;;;;;;;;16.96;82.90;98419.25;6221530;23;19911;-92
2023/10/26 00:35:01;;;;;;;;;;;;;;;16.99;82.45;98409.63;6224103;23;19939;-92
2023/10/26 00:37:27;;;;;;;;;;;;;;;16.87;83.16;98397.56;6197182;23;19973;-93
2023/10/26 00:39:54;;;;;;;;;;;;;;;16.78;83.50;98388.66;6248714;23;20334;-92
2023/10/26 00:42:19;;;;;;;;;;;;;;;16.82;83.40;98386.09;6196691;23;19912;-91
2023/10/26 00:44:46;;;;;;;;;;;;;;;16.82;83.47;98388.81;6196610;23;19983;-92
2023/10/26 00:47:14;;;;;;;;;;;;;;;16.82;83.78;98402.41;6196481;23;19911;-92
2023/10/26 00:49:43;;;;;;;;;;;;;;;16.84;83.36;98400.94;6221384;23;19922;-91
2023/10/26 00:52:09;;;;;;;;;;;;;;;16.82;83.16;98392.34;6197149;23;19908;-90
2023/10/26 00:54:36;;;;;;;;;;;;;;;16.84;82.58;98390.06;6196297;23;19911;-92
2023/10/26 00:57:01;;;;;;;;;;;;;;;16.85;82.27;98394.41;6196803;23;19923;-91
2023/10/26 00:59:27;;;;;;;;;;;;;;;16.88;81.57;98382.84;6196468;23;19911;-91
2023/10/26 01:01:55;;;;;;;;;;;;;;;16.89;81.46;98394.50;6247517;23;19911;-91
2023/10/26 01:04:22;;;;;;;;;;;;;;;16.93;80.94;98388.09;6196737;23;19912;-92
2023/10/26 01:06:48;;;;;;;;;;;;;;;16.84;82.23;98398.22;6221015;23;19938;-92
2023/10/26 01:09:14;;;;;;;;;;;;;;;16.83;82.95;98407.53;6196548;23;19907;-92
2023/10/26 01:11:40;;;;;;;;;;;;;;;16.79;82.87;98406.56;6197151;23;19937;-92
2023/10/26 01:14:06;;;;;;;;;;;;;;;16.80;83.13;98408.16;6196857;23;19911;-91
2023/10/26 01:16:31;;;;;;;;;;;;;;;16.77;83.61;98404.19;6196286;23;19907;-91
2023/10/26 01:19:03;;;;;;;;;;;;;;;16.73;83.40;98399.75;6196056;23;20246;-92
2023/10/26 01:21:28;;;;;;;;;;;;;;;16.75;82.98;98392.06;6196996;23;19946;-91
2023/10/26 01:23:54;;;;;;;;;;;;;;;16.77;82.49;98393.31;6197168;23;19908;-92
2023/10/26 01:26:20;;;;;;;;;;;;;;;16.78;81.95;98407.69;6197493;23;19914;-91
2023/10/26 01:28:46;;;;;;;;;;;;;;;16.82;81.81;98403.19;6195530;23;19916;-91
2023/10/26 01:31:15;;;;;;;;;;;;;;;16.82;82.08;98407.84;6196118;23;19914;-90
2023/10/26 01:33:40;;;;;;;;;;;;;;;16.71;82.24;98396.56;6248415;23;19919;-91
2023/10/26 01:36:06;;;;;;;;;;;;;;;16.69;83.12;98396.09;6196585;23;20323;-90
2023/10/26 01:38:31;;;;;;;;;;;;;;;16.66;83.06;98396.75;6221889;23;19966;-92
2023/10/26 01:40:57;;;;;;;;;;;;;;;16.63;82.76;98394.72;6195287;23;19908;-92
2023/10/26 01:43:24;;;;;;;;;;;;;;;16.52;83.05;98394.34;6220752;23;20250;-92
2023/10/26 01:45:49;;;;;;;;;;;;;;;16.41;83.86;98399.34;6222217;23;19914;-92
2023/10/26 01:48:15;;;;;;;;;;;;;;;16.34;84.30;98399.09;6221986;23;20311;-92
2023/10/26 01:50:40;;;;;;;;;;;;;;;16.36;83.63;98410.41;6197431;23;19953;-91
2023/10/26 01:53:06;;;;;;;;;;;;;;;16.34;83.19;98408.03;6222393;23;20480;-92
2023/10/26 01:55:31;;;;;;;;;;;;;;;16.34;82.90;98409.94;6197910;23;19939;-92
2023/10/26 01:57:57;;;;;;;;;;;;;;;16.36;83.11;98405.78;6197498;23;19907;-92
2023/10/26 02:00:23;;;;;;;;;;;;;;;16.35;83.10;98408.81;6198494;23;19907;-93
2023/10/26 02:02:51;;;;;;;;;;;;;;;16.35;83.20;98411.53;6197604;23;20357;-91
2023/10/26 02:05:16;;;;;;;;;;;;;;;16.37;83.13;98422.88;6198195;23;20095;-92
2023/10/26 02:07:42;;;;;;;;;;;;;;;16.36;82.88;98418.56;6197487;23;19908;-92
2023/10/26 02:10:07;;;;;;;;;;;;;;;16.35;82.41;98416.97;6197828;23;19908;-91
2023/10/26 02:12:32;;;;;;;;;;;;;;;16.39;82.43;98414.38;6222682;23;20262;-91
2023/10/26 02:14:58;;;;;;;;;;;;;;;16.37;82.73;98412.00;6224016;23;19908;-90
2023/10/26 02:17:23;;;;;;;;;;;;;;;16.38;82.58;98413.59;6222938;23;20323;-90
2023/10/26 02:19:48;;;;;;;;;;;;;;;16.36;83.05;98413.13;6222710;23;20318;-91
2023/10/26 02:22:14;;;;;;;;;;;;;;;16.28;83.52;98416.72;6223126;23;20349;-92
2023/10/26 02:24:42;;;;;;;;;;;;;;;16.21;84.21;98419.13;6197473;23;19907;-91
2023/10/26 02:27:08;;;;;;;;;;;;;;;16.20;83.63;98421.06;6249462;23;19908;-90
2023/10/26 02:29:33;;;;;;;;;;;;;;;16.15;84.26;98432.13;6222951;23;19942;-91
2023/10/26 02:32:02;;;;;;;;;;;;;;;16.09;84.17;98425.28;6197901;23;19907;-91
2023/10/26 02:34:31;;;;;;;;;;;;;;;16.03;84.68;98421.16;6224542;23;20326;-90
2023/10/26 02:36:59;;;;;;;;;;;;;;;15.99;84.76;98429.16;6199495;23;19911;-91
2023/10/26 02:39:25;;;;;;;;;;;;;;;16.00;84.64;98429.94;6225010;23;19907;-90
2023/10/26 02:41:51;;;;;;;;;;;;;;;15.98;84.70;98411.31;6224156;23;19908;-91
2023/10/26 02:44:18;;;;;;;;;;;;;;;15.87;85.20;98400.00;6224839;23;20345;-91
2023/10/26 02:46:43;;;;;;;;;;;;;;;15.90;84.64;98421.06;6252275;23;19908;-90
2023/10/26 02:49:08;;;;;;;;;;;;;;;15.91;84.94;98419.94;6199074;23;20334;-91
2023/10/26 02:51:33;;;;;;;;;;;;;;;15.98;84.77;98430.31;6222982;23;20259;-91
2023/10/26 02:53:59;;;;;;;;;;;;;;;16.02;84.68;98428.53;6223142;23;19919;-90
2023/10/26 02:56:24;;;;;;;;;;;;;;;16.01;84.94;98421.50;6223866;23;19907;-90
2023/10/26 02:58:49;;;;;;;;;;;;;;;16.06;84.45;98413.19;6222760;23;19939;-90
2023/10/26 03:01:15;;;;;;;;;;;;;;;16.06;84.31;98409.63;6224536;23;19915;-90
2023/10/26 03:03:40;;;;;;;;;;;;;;;15.98;85.40;98405.06;6197568;23;19934;-90
2023/10/26 03:06:06;;;;;;;;;;;;;;;15.98;85.10;98407.75;6199329;23;20226;-90
2023/10/26 03:08:31;;;;;;;;;;;;;;;16.05;84.81;98418.91;6199496;23;20308;-90
2023/10/26 03:10:58;;;;;;;;;;;;;;;16.02;84.58;98417.66;6198173;23;19969;-90
2023/10/26 03:13:23;;;;;;;;;;;;;;;15.95;85.21;98414.66;6223277;23;19912;-89
2023/10/26 03:15:49;;;;;;;;;;;;;;;15.86;84.61;98403.84;6222276;23;19911;-89
2023/10/26 03:18:14;;;;;;;;;;;;;;;15.78;84.65;98401.97;6198090;23;19965;-90
2023/10/26 03:20:42;;;;;;;;;;;;;;;15.76;84.15;98394.16;6197634;23;19907;-90
2023/10/26 03:23:08;;;;;;;;;;;;;;;15.74;84.35;98393.66;6198386;23;20286;-91
2023/10/26 03:25:33;;;;;;;;;;;;;;;15.70;84.75;98395.41;6224017;23;19915;-90
2023/10/26 03:27:59;;;;;;;;;;;;;;;15.69;84.79;98390.34;6223647;23;19907;-89
2023/10/26 03:30:26;;;;;;;;;;;;;;;15.70;84.37;98383.78;6199776;23;19916;-94
2023/10/26 03:32:51;;;;;;;;;;;;;;;15.77;84.26;98378.66;6201116;23;19959;-95
2023/10/26 03:35:16;;;;;;;;;;;;;;;15.80;84.46;98385.38;6200674;23;19919;-95
2023/10/26 03:37:42;;;;;;;;;;;;;;;15.68;84.86;98372.44;6201500;23;19908;-94
2023/10/26 03:40:07;;;;;;;;;;;;;;;15.67;84.81;98374.38;6198405;23;19907;-94
2023/10/26 03:42:35;;;;;;;;;;;;;;;15.69;84.58;98374.84;6199179;23;19919;-93
2023/10/26 03:45:01;;;;;;;;;;;;;;;15.70;84.37;98378.34;6198217;23;19907;-91
2023/10/26 03:47:27;;;;;;;;;;;;;;;15.73;83.95;98380.44;6199812;23;19951;-94
2023/10/26 03:49:52;;;;;;;;;;;;;;;15.78;84.12;98385.69;6198652;23;19938;-95
2023/10/26 03:52:19;;;;;;;;;;;;;;;15.71;84.27;98388.09;6199414;23;19907;-94
2023/10/26 03:54:46;;;;;;;;;;;;;;;15.71;84.79;98385.38;6223524;23;20227;-94
2023/10/26 03:57:12;;;;;;;;;;;;;;;15.73;84.56;98383.16;6198718;23;19908;-93
2023/10/26 03:59:40;;;;;;;;;;;;;;;15.74;84.35;98379.31;6223017;23;20239;-95
2023/10/26 04:02:08;;;;;;;;;;;;;;;15.76;84.28;98374.34;6199074;23;19954;-93
2023/10/26 04:04:50;;;;;;;;;;;;;;;15.68;85.18;98383.31;6200716;23;20330;-95
2023/10/26 04:07:18;;;;;;;;;;;;;;;15.61;85.30;98378.41;6224913;23;19952;-94
2023/10/26 04:09:52;;;;;;;;;;;;;;;15.59;85.14;98377.91;6225341;23;19939;-94
2023/10/26 04:12:32;;;;;;;;;;;;;;;15.61;84.73;98385.75;6226730;23;19911;-95
2023/10/26 04:15:07;;;;;;;;;;;;;;;15.59;84.52;98385.28;6227052;23;20258;-95
2023/10/26 04:17:34;;;;;;;;;;;;;;;15.57;84.42;98391.00;6225558;23;19915;-95
2023/10/26 04:19:59;;;;;;;;;;;;;;;15.55;84.25;98399.47;6225591;23;20365;-95
2023/10/26 04:22:25;;;;;;;;;;;;;;;15.42;84.41;98405.09;6226788;23;19978;-94
2023/10/26 04:24:51;;;;;;;;;;;;;;;15.40;84.30;98399.19;6200887;23;19965;-93
2023/10/26 04:27:16;;;;;;;;;;;;;;;15.33;84.14;98392.34;6212012;23;19912;-95
2023/10/26 04:29:49;;;;;;;;;;;;;;;15.29;84.29;98391.44;6224745;23;19960;-95
2023/10/26 04:32:17;;;;;;;;;;;;;;;15.33;84.36;98397.78;6211583;23;19908;-95
2023/10/26 04:34:47;;;;;;;;;;;;;;;15.39;84.21;98393.00;6222564;23;19916;-94
2023/10/26 04:37:12;;;;;;;;;;;;;;;15.46;84.47;98395.19;6222363;23;19931;-94
2023/10/26 04:39:43;;;;;;;;;;;;;;;15.40;85.30;98393.78;6195283;23;19931;-93
2023/10/26 04:42:10;;;;;;;;;;;;;;;15.41;85.36;98398.09;6197611;23;19908;-95
2023/10/26 04:53:46;;;;;;;;;;;;;;;15.60;84.74;98401.22;6159272;23;19924;-94
2023/10/26 04:56:13;;;;;;;;;;;;;;;15.53;85.65;98409.84;6109408;23;20336;-93
2023/10/26 04:58:39;;;;;;;;;;;;;;;15.43;85.46;98404.78;6172344;23;19909;-93
2023/10/26 05:01:07;;;;;;;;;;;;;;;15.43;85.69;98406.72;6224583;23;19908;-95
2023/10/26 05:03:32;;;;;;;;;;;;;;;15.40;85.29;98407.34;6195070;23;19958;-94
2023/10/26 05:05:57;;;;;;;;;;;;;;;15.32;85.26;98407.06;6195451;23;19912;-94
2023/10/26 05:08:23;;;;;;;;;;;;;;;15.32;84.69;98415.19;6194145;23;19908;-93
2023/10/26 05:10:48;;;;;;;;;;;;;;;15.40;84.04;98415.47;6195253;23;19978;-94
2023/10/26 05:13:16;;;;;;;;;;;;;;;15.38;83.63;98417.72;6198535;23;19912;-93
2023/10/26 05:15:57;;;;;;;;;;;;;;;15.36;84.07;98426.19;6222571;23;19908;-96
2023/10/26 05:18:30;;;;;;;;;;;;;;;15.51;83.42;98422.94;6219679;23;19908;-95
2023/10/26 05:20:59;;;;;;;;;;;;;;;15.64;82.12;98429.28;6224145;23;19985;-95
2023/10/26 05:23:34;;;;;;;;;;;;;;;15.76;82.10;98429.44;6225925;23;19978;-96
2023/10/26 05:25:59;;;;;;;;;;;;;;;15.87;82.39;98424.44;6200275;23;19912;-95
2023/10/26 05:28:37;;;;;;;;;;;;;;;15.93;82.82;98430.47;6203133;23;19915;-96
2023/10/26 05:31:13;;;;;;;;;;;;;;;15.98;82.89;98432.19;6240285;23;19922;-94
2023/10/26 05:42:59;;;;;;;;;;;;;;;16.25;81.74;98450.75;6075123;23;19945;-96
2023/10/26 05:45:38;;;;;;;;;;;;;;;16.26;83.26;98446.13;6132835;23;19901;-93
2023/10/26 05:50:44;;;;;;;;;;;;;;;16.31;83.24;98443.19;6238542;22;19920;-96
2023/10/26 05:53:09;;;;;;;;;;;;;;;16.40;82.59;98435.81;6179662;23;19923;-96
2023/10/26 05:55:35;;;;;;;;;;;;;;;16.30;82.86;98447.06;6176871;23;19896;-94
2023/10/26 05:58:03;;;;;;;;;;;;;;;16.40;82.19;98449.38;6182050;23;19908;-95
2023/10/26 06:00:31;;;;;;;;;;;;;;;16.35;81.98;98444.94;6179246;23;20322;-96
2023/10/26 06:03:00;;;;;;;;;;;;;;;16.42;82.06;98444.41;6201829;23;19911;-95
2023/10/26 06:05:33;;;;;;;;;;;;;;;16.56;81.68;98453.13;6181483;23;19958;-96
2023/10/26 06:07:58;;;;;;;;;;;;;;;16.68;80.67;98449.66;6181952;23;19931;-94
2023/10/26 06:10:32;;;;;;;;;;;;;;;16.71;80.49;98443.56;6177317;23;19907;-95
2023/10/26 06:13:17;;;;;;;;;;;;;;;;;;;;;
2023/10/26 06:16:04;;;;;;;;;;;;;;;16.97;79.64;98450.72;6203003;23;19939;-93
2023/10/26 06:18:29;;;;;;;;;;;;;;;17.05;79.27;98441.69;6202962;23;19908;-94
2023/10/26 06:20:58;;;;;;;;;;;;;;;17.08;80.15;98441.06;6171160;23;19915;-95
2023/10/26 06:23:23;;;;;;;;;;;;;;;17.27;79.64;98437.03;6173110;23;19915;-95
2023/10/26 06:25:51;;;;;;;;;;;;;;;17.35;80.04;98433.44;6172398;23;19908;-95
2023/10/26 06:28:27;;;;;;;;;;;;;;;;;;;;;
2023/10/26 06:31:19;;;;;;;;;;;;;;;;;;;;;
2023/10/26 06:36:58;;;;;;;;;;;;;;;17.97;76.94;98443.28;6137522;23;19985;-96
2023/10/26 06:39:31;;;;;;;;;;;;;;;18.06;76.33;98442.38;6113734;23;19909;-94
2023/10/26 06:41:59;;;;;;;;;;;;;;;18.14;76.33;98446.94;6115125;23;19920;-96
2023/10/26 06:47:56;;;;;;;;;;;;;;;18.21;76.70;98444.41;6246113;22;19923;-94
2023/10/26 06:53:43;;;;;;;;;;;;;;;18.25;75.47;98450.75;6227014;23;19918;-96
2023/10/26 06:56:16;;;;;;;;;;;;;;;18.37;74.97;98447.25;6255436;23;19935;-96
2023/10/26 06:58:51;;;;;;;;;;;;;;;18.43;74.50;98439.59;6259213;23;19955;-96
2023/10/26 07:01:20;;;;;;;;;;;;;;;18.51;73.35;98434.03;6263417;23;19908;-94
2023/10/26 07:09:46;;;;;;;;;;;;;;;18.72;71.81;98442.06;6191625;23;19932;-96
2023/10/26 07:17:28;;;;;;;;;;;;;;;18.67;70.45;98433.31;6247542;22;19926;-95
2023/10/26 07:20:17;;;;;;;;;;;;;;;;;;;;;
2023/10/26 07:25:38;;;;;;;;;;;;;;;18.83;72.27;98433.41;6256207;22;19920;-95
2023/10/26 07:28:03;;;;;;;;;;;;;;;18.98;70.74;98443.56;6251591;22;19916;-93
2023/10/26 07:30:29;;;;;;;;;;;;;;;19.12;69.91;98443.97;6199737;23;19908;-93
2023/10/26 07:33:03;;;;;;;;;;;;;;;19.21;69.69;98453.94;6204928;23;19952;-95
2023/10/26 07:35:29;;;;;;;;;;;;;;;19.40;69.09;98445.88;6206443;23;19919;-95
2023/10/26 07:38:03;;;;;;;;;;;;;;;19.61;68.46;98451.13;6203771;23;19964;-94
2023/10/26 07:43:31;;;;;;;;;;;;;;;19.82;66.98;98445.44;6250563;23;19931;-94
2023/10/26 07:49:14;;;;;;;;;;;;;;;20.15;64.32;98446.97;6216182;23;19978;-92
2023/10/26 07:52:10;;;;;;;;;;;;;;;;;;;;;
2023/10/26 07:54:58;;;;;;;;;;;;;;;;;;;;;
2023/10/26 07:57:46;;;;;;;;;;;;;;;20.42;62.51;98455.38;6238471;23;19946;-92
2023/10/26 08:06:04;;;;;;;;;;;;;;;20.60;60.82;98448.41;6243602;22;19919;-94
2023/10/26 08:11:08;;;;;;;;;;;;;;;20.84;61.14;98449.31;6243646;22;19919;-94
2023/10/26 08:13:34;;;;;;;;;;;;;;;20.93;61.90;98444.41;6224217;23;19916;-95
2023/10/26 08:16:22;;;;;;;;;;;;;;;21.04;61.76;98437.19;6198790;23;19915;-93
2023/10/26 08:18:48;;;;;;;;;;;;;;;21.17;60.51;98440.56;6242806;23;20300;-93
2023/10/26 08:21:13;;;;;;;;;;;;;;;21.29;59.28;98434.94;6222206;23;19914;-93
2023/10/26 08:27:03;;;;;;;;;;;;;;;21.62;59.26;98430.06;6225849;23;19908;-93
2023/10/26 08:29:31;;;;;;;;;;;;;;;21.74;59.68;98427.91;6202090;23;19912;-90
2023/10/26 08:32:03;;;;;;;;;;;;;;;21.83;58.90;98421.38;6253730;23;19957;-93
2023/10/26 08:34:29;;;;;;;;;;;;;;;21.89;57.52;98420.72;6199209;23;20297;-95
2023/10/26 08:36:54;;;;;;;;;;;;;;;21.94;57.91;98427.84;6225503;23;19907;-93
2023/10/26 08:39:20;;;;;;;;;;;;;;;22.10;57.79;98427.69;6202153;23;19915;-93
2023/10/26 08:41:57;;;;;;;;;;;;;;;;;;;;;
2023/10/26 08:44:23;;;;;;;;;;;;;;;22.28;58.41;98425.25;6223725;23;19952;-93
2023/10/26 08:46:55;;;;;;;;;;;;;;;22.32;58.26;98421.38;6172938;23;22711;-93
2023/10/26 08:49:21;;;;;;;;;;;;;;;22.38;57.27;98425.38;6195857;23;19967;-94
2023/10/26 08:51:48;;;;;;;;;;;;;;;22.54;56.41;98413.47;6198171;23;19908;-93
2023/10/26 08:54:17;;;;;;;;;;;;;;;22.70;56.38;98418.75;6204476;23;19955;-94
2023/10/26 08:56:45;;;;;;;;;;;;;;;22.80;55.48;98407.09;6231409;23;20307;-95
2023/10/26 08:59:15;;;;;;;;;;;;;;;22.85;56.54;98415.03;6206725;23;19938;-92
2023/10/26 09:01:46;;;;;;;;;;;;;;;22.92;56.29;98417.06;6231300;23;20327;-93
2023/10/26 09:04:12;;;;;;;;;;;;;;;23.03;55.30;98398.78;6247749;23;20319;-94
2023/10/26 09:06:41;;;;;;;;;;;;;;;23.16;54.43;98394.63;6249085;23;19959;-92
2023/10/26 09:09:09;;;;;;;;;;;;;;;23.17;52.10;98400.88;6195898;23;19912;-94
2023/10/26 09:11:34;;;;;;;;;;;;;;;23.24;49.53;98400.16;6219758;23;20339;-91
2023/10/26 09:14:23;;;;;;;;;;;;;;;23.36;49.30;98395.19;6224137;23;19965;-93
2023/10/26 09:17:10;;;;;;;;;;;;;;;23.56;49.50;98392.25;6219687;23;20007;-94
2023/10/26 09:20:07;;;;;;;;;;;;;;;23.59;52.00;98392.28;6201756;23;19915;-94
2023/10/26 09:22:53;;;;;;;;;;;;;;;23.64;50.99;98390.31;6173745;23;19908;-96
2023/10/26 09:25:18;;;;;;;;;;;;;;;23.79;50.98;98373.59;6175334;23;19912;-96
2023/10/26 09:27:46;;;;;;;;;;;;;;;23.93;50.85;98369.38;6173056;23;19989;-94
2023/10/26 09:31:01;;;;;;;;;;;;;;;23.98;51.01;98369.03;6177379;23;19907;-95
2023/10/26 09:33:36;;;;;;;;;;;;;;;23.96;51.67;98369.41;6111060;23;19984;-94
2023/10/26 09:36:10;;;;;;;;;;;;;;;24.14;50.40;98360.47;6148073;23;19987;-94
2023/10/26 09:38:55;;;;;;;;;;;;;;;24.23;49.20;98352.66;6167849;23;19908;-91
2023/10/26 09:41:32;;;;;;;;;;;;;;;24.30;49.83;98355.47;6220722;23;20396;-92
2023/10/26 09:44:16;;;;;;;;;;;;;;;;;;;;;
2023/10/26 09:46:52;;;;;;;;;;;;;;;24.54;48.67;98354.00;6215690;23;19927;-92
2023/10/26 09:49:17;;;;;;;;;;;;;;;24.63;49.14;98361.91;6231626;23;19908;-95
2023/10/26 09:58:12;;;;;;;;;;;;;;;24.78;44.71;98351.75;6209939;23;19912;-91
2023/10/26 10:00:40;;;;;;;;;;;;;;;24.86;42.38;98347.84;6223577;23;19911;-94
2023/10/26 10:03:13;;;;;;;;;;;;;;;24.96;42.71;98349.03;6200207;23;20314;-94
2023/10/26 10:05:41;;;;;;;;;;;;;;;24.97;44.06;98342.34;6201386;23;19908;-93
2023/10/26 10:08:09;;;;;;;;;;;;;;;25.04;43.62;98347.88;6203065;23;20258;-92
2023/10/26 10:10:37;;;;;;;;;;;;;;;25.06;42.99;98341.97;6216894;23;19916;-91
2023/10/26 10:13:35;;;;;;;;;;;;;;;25.09;42.75;98330.16;6196874;23;19916;-95
2023/10/26 10:32:23;;;;;;;;;;;;;;;24.96;40.13;98304.97;6022392;23;19916;-92
2023/10/26 10:35:00;;;;;;;;;;;;;;;24.93;41.81;98308.53;6015275;23;19922;-95
2023/10/26 10:37:26;;;;;;;;;;;;;;;24.95;42.60;98308.91;6096792;23;19987;-93
2023/10/26 10:40:10;;;;;;;;;;;;;;;24.96;45.29;98304.97;6127984;23;19915;-91
2023/10/26 10:42:56;;;;;;;;;;;;;;;24.96;43.59;98293.94;6168490;23;19947;-96
2023/10/26 10:45:27;;;;;;;;;;;;;;;24.92;41.44;98282.16;6168429;23;19931;-95
2023/10/26 10:47:55;;;;;;;;;;;;;;;25.00;43.00;98286.47;6169753;23;19908;-92
2023/10/26 10:56:44;;;;;;;;;;;;;;;;;;;;;
2023/10/26 10:59:54;;;;;;;;;;;;;;;;;;;;;
2023/10/26 11:02:32;;;;;;;;;;;;;;;24.98;43.35;98275.84;6216336;23;19923;-96
2023/10/26 11:05:08;;;;;;;;;;;;;;;25.02;44.10;98271.13;6229340;23;19907;-94
2023/10/26 11:08:19;;;;;;;;;;;;;;;;;;;;;
2023/10/26 11:15:08;;;;;;;;;;;;;;;;;;;;;
2023/10/26 11:19:59;;;;;;;;;;;;;;;25.10;43.33;98233.38;6169153;23;19977;-93
2023/10/26 11:22:32;;;;;;;;;;;;;;;25.13;42.95;98231.78;6191831;23;19912;-95
2023/10/26 11:25:18;;;;;;;;;;;;;;;25.22;43.17;98226.72;6192813;23;19912;-96
2023/10/26 11:36:45;;;;;;;;;;;;;;;25.56;41.66;98206.97;6205334;22;19919;-96
2023/10/26 11:39:24;;;;;;;;;;;;;;;25.56;41.10;98204.22;6191268;23;19930;-94
2023/10/26 11:41:59;;;;;;;;;;;;;;;25.58;40.52;98197.09;6211515;23;19924;-96
2023/10/26 11:44:25;;;;;;;;;;;;;;;25.58;40.82;98201.84;6199907;23;20262;-93
2023/10/26 11:47:02;;;;;;;;;;;;;;;25.67;40.52;98199.47;6196550;23;19927;-90
2023/10/26 11:49:46;;;;;;;;;;;;;;;25.71;41.26;98199.44;6196924;23;19930;-91
2023/10/26 11:52:44;;;;;;;;;;;;;;;25.77;40.35;98201.41;6206925;23;19945;-96
2023/10/26 12:10:42;;;;;;;;;;;;;;;;;;;;;
2023/10/26 12:13:51;;;;;;;;;;;;;;;25.47;41.14;98162.50;6017572;23;20000;-95
2023/10/26 12:19:39;;;;;;;;;;;;;;;25.39;41.55;98161.72;6015524;23;19950;-95
2023/10/26 12:25:16;;;;;;;;;;;;;;;;;;;;;
2023/10/26 12:28:34;;;;;;;;;;;;;;;25.25;41.76;98170.81;6225701;23;19986;-93
2023/10/26 12:31:10;;;;;;;;;;;;;;;25.10;41.86;98170.00;6136060;23;19932;-94
2023/10/26 13:16:30;;;;;;;;;;;;;;;24.51;42.88;98139.34;6168325;23;20284;-91
2023/10/26 13:55:07;;;;;;;;;;;;;;;24.36;43.72;98122.81;6244382;22;19981;-96
2023/10/26 13:57:33;;;;;;;;;;;;;;;24.27;45.09;98116.09;6204289;23;20338;-93
2023/10/26 14:00:01;;;;;;;;;;;;;;;24.19;45.11;98121.59;6201692;23;19908;-94
2023/10/26 14:02:42;;;;;;;;;;;;;;;24.16;44.36;98116.09;6206745;23;19908;-94
2023/10/26 14:05:37;;;;;;;;;;;;;;;24.07;45.56;98119.19;6212034;23;19919;-96
2023/10/26 14:14:29;;;;;;;;;;;;;;;23.94;47.71;98110.53;6227490;23;20115;-95
2023/10/26 14:25:53;;;;;;;;;;;;;;;23.62;47.94;98126.91;6223905;22;19904;-95
2023/10/26 14:56:26;;;;;;;;;;;;;;;23.09;46.67;98166.63;6184292;23;19916;-93
2023/10/26 14:58:58;;;;;;;;;;;;;;;23.11;47.20;98166.25;6197664;23;19915;-95
2023/10/26 15:04:29;;;;;;;;;;;;;;;22.79;51.67;98169.50;6226688;23;19914;-95
2023/10/26 15:07:15;;;;;;;;;;;;;;;22.57;53.06;98163.03;6177185;23;20299;-96
2023/10/26 15:09:43;;;;;;;;;;;;;;;22.52;55.54;98160.66;6201797;23;19908;-95
2023/10/26 15:15:21;;;;;;;;;;;;;;;22.18;53.12;98174.38;6092775;23;19923;-93
2023/10/26 15:17:54;;;;;;;;;;;;;;;21.95;54.86;98182.72;6199178;23;19916;-95
2023/10/26 15:20:43;;;;;;;;;;;;;;;21.84;55.16;98195.53;6173916;23;19971;-96
2023/10/26 15:23:17;;;;;;;;;;;;;;;21.69;58.89;98219.22;6222008;23;19912;-96
2023/10/26 15:25:46;;;;;;;;;;;;;;;21.59;59.26;98220.66;6202988;23;19892;-95
2023/10/26 15:31:29;;;;;;;;;;;;;;;21.45;60.22;98225.91;6266345;22;19919;-95
2023/10/26 15:44:36;;;;;;;;;;;;;;;;;;;;;
2023/10/26 15:50:02;;;;;;;;;;;;;;;;;;;;;
2023/10/26 15:52:42;;;;;;;;;;;;;;;20.86;63.45;98244.53;6223580;23;19927;-95
2023/10/26 15:55:38;;;;;;;;;;;;;;;20.76;63.75;98245.91;6209616;23;19986;-95
2023/10/26 15:58:32;;;;;;;;;;;;;;;20.68;64.48;98253.19;6161816;23;20035;-95
2023/10/26 16:00:58;;;;;;;;;;;;;;;20.59;65.40;98252.63;6164380;23;20266;-93
2023/10/26 16:03:32;;;;;;;;;;;;;;;20.55;66.21;98268.16;6165961;23;19908;-93
2023/10/26 16:06:14;;;;;;;;;;;;;;;;;;;;;
2023/10/26 16:08:39;;;;;;;;;;;;;;;20.43;67.55;98277.31;6193551;23;19939;-94
2023/10/26 16:11:14;;;;;;;;;;;;;;;20.40;67.51;98286.25;6163667;23;19919;-94
2023/10/26 16:13:42;;;;;;;;;;;;;;;20.40;67.60;98294.44;6166217;23;19912;-93
2023/10/26 16:16:12;;;;;;;;;;;;;;;20.36;67.31;98282.66;6165918;23;19908;-94
2023/10/26 16:18:38;;;;;;;;;;;;;;;20.27;68.26;98290.25;6169203;23;19912;-96
2023/10/26 16:21:06;;;;;;;;;;;;;;;20.18;68.38;98285.00;6167320;23;19915;-94
2023/10/26 16:23:31;;;;;;;;;;;;;;;20.09;68.91;98287.97;6163127;23;19916;-96
2023/10/26 16:25:58;;;;;;;;;;;;;;;19.97;70.21;98290.81;6163207;23;19908;-92
2023/10/26 16:28:23;;;;;;;;;;;;;;;19.92;70.08;98285.63;6176577;23;19907;-94
2023/10/26 16:30:52;;;;;;;;;;;;;;;19.90;69.27;98299.66;6198446;23;19956;-94
2023/10/26 16:33:18;;;;;;;;;;;;;;;19.87;69.92;98296.84;6199008;23;19913;-96
2023/10/26 16:35:45;;;;;;;;;;;;;;;19.77;70.64;98298.19;6200377;23;19981;-96
2023/10/26 16:38:10;;;;;;;;;;;;;;;19.70;71.78;98293.34;6202119;23;20342;-95
2023/10/26 16:40:35;;;;;;;;;;;;;;;19.66;71.72;98295.19;6202995;23;19907;-95
2023/10/26 16:43:01;;;;;;;;;;;;;;;19.68;71.65;98294.84;6199711;23;20237;-95
2023/10/26 16:45:26;;;;;;;;;;;;;;;19.64;71.57;98300.19;6199452;23;20327;-95
2023/10/26 16:47:52;;;;;;;;;;;;;;;19.63;71.97;98306.00;6202418;23;19918;-96
2023/10/26 16:50:18;;;;;;;;;;;;;;;19.59;72.04;98303.22;6201991;23;19961;-96
2023/10/26 16:52:44;;;;;;;;;;;;;;;19.56;72.46;98301.97;6198573;23;19907;-96
2023/10/26 16:55:10;;;;;;;;;;;;;;;19.59;72.28;98301.28;6199587;23;19919;-94
2023/10/26 16:57:36;;;;;;;;;;;;;;;19.56;72.81;98304.69;6199534;23;19916;-95
2023/10/26 17:00:02;;;;;;;;;;;;;;;19.57;72.86;98305.50;6226654;23;19907;-95
2023/10/26 17:02:30;;;;;;;;;;;;;;;19.55;73.17;98300.41;6200260;23;19911;-96
2023/10/26 17:04:57;;;;;;;;;;;;;;;19.55;73.26;98294.16;6199235;23;20235;-95
2023/10/26 17:07:22;;;;;;;;;;;;;;;19.54;73.20;98304.25;6200812;23;19907;-96
2023/10/26 17:09:52;;;;;;;;;;;;;;;19.56;72.87;98314.84;6201534;23;19930;-95
2023/10/26 17:12:18;;;;;;;;;;;;;;;19.61;72.86;98320.03;6199484;23;19912;-96
2023/10/26 17:14:47;;;;;;;;;;;;;;;19.59;72.98;98314.13;6200737;23;20392;-95
2023/10/26 17:17:13;;;;;;;;;;;;;;;19.56;71.76;98312.88;6201071;23;19907;-95
2023/10/26 17:19:39;;;;;;;;;;;;;;;19.53;70.50;98323.75;6200203;23;20012;-95
2023/10/26 17:22:08;;;;;;;;;;;;;;;19.48;70.18;98329.47;6198471;23;19907;-96
2023/10/26 17:24:34;;;;;;;;;;;;;;;19.45;71.34;98325.50;6200652;23;20250;-96
2023/10/26 17:27:02;;;;;;;;;;;;;;;19.43;70.76;98327.78;6198531;23;19915;-96
2023/10/26 17:29:27;;;;;;;;;;;;;;;19.39;69.93;98316.78;6198696;23;19914;-96
2023/10/26 17:31:52;;;;;;;;;;;;;;;19.35;70.41;98310.44;6199076;23;19911;-94
2023/10/26 17:34:18;;;;;;;;;;;;;;;19.30;72.14;98318.09;6199232;23;19911;-96
2023/10/26 17:36:46;;;;;;;;;;;;;;;19.22;72.72;98313.63;6199420;23;19915;-96
2023/10/26 17:39:11;;;;;;;;;;;;;;;19.21;73.34;98317.50;6200255;23;19907;-96
2023/10/26 17:41:37;;;;;;;;;;;;;;;19.17;73.54;98315.47;6224095;23;19915;-96
2023/10/26 17:44:03;;;;;;;;;;;;;;;19.14;74.10;98307.19;6199714;23;19942;-96
2023/10/26 17:46:28;;;;;;;;;;;;;;;19.05;74.67;98314.75;6199531;23;19973;-96
2023/10/26 17:48:53;;;;;;;;;;;;;;;19.01;75.16;98316.59;6199983;23;19907;-96
2023/10/26 17:51:19;;;;;;;;;;;;;;;18.98;75.43;98323.53;6199041;23;19908;-96
2023/10/26 17:53:45;;;;;;;;;;;;;;;18.92;75.85;98322.22;6199384;23;19915;-95
2023/10/26 17:56:13;;;;;;;;;;;;;;;18.93;75.70;98321.09;6198488;23;19908;-95